San Ramon, CA (94582)

2:08 AM PDT on August 31, 2015 (GMT -0700)
Montecito | | Change Station
CLOSE
Current Station
Personal Weather Station
Location: San Ramon, CA
Elevation: 706 ft
Nearby Weather Stations

Elev 706 ft 37.75 °N, 121.89 °W | Updated 8 minutes ago

Clear
Clear
62.8 °F
Feels Like 62.8 °F
N
0.0
Wind Variable Wind from NE
Gusts 0.0 mph

Today
High -- | Low -- °F
--% Chance of Precip.
Yesterday
High -- | Low -- °F
Precip. -- in
6:36 AM 7:38 PM
Waning Gibbous, 96% visible
Pressure 29.92 in
Visibility 10.0 miles
Clouds Clear
Dew Point 60 °F
Humidity 90%
Rainfall 0.00 in
Snow Depth Not available.
UV 0 out of 12
Pollen 6.40 out of 12
Air Quality Not available.
Flu Activity Not available.
METAR KLVK 310753Z AUTO 24006KT 10SM CLR 19/14 A2993 RMK AO2 SLP132 T01890144 402940178
Pressure 29.92 in
Visibility 10.0 miles
Clouds Clear
Dew Point 60 °F
Humidity 90%
Rainfall 0.00 in
Snow Depth Not available.
UV 0 out of 12
Pollen 6.40 out of 12
Air Quality Not available.
Flu Activity Not available.
METAR KLVK 310753Z AUTO 24006KT 10SM CLR 19/14 A2993 RMK AO2 SLP132 T01890144 402940178

10-Day Weather Forecast

×

Almanac

Astronomy

Aug. 31, 2015 Rise Set
Actual Time
Civil Twilight
Nautical Twilight
Astronomical Twilight
Moon
Length of Visible Light
Length of Day
Tomorrow will be .
, % of the Moon is Illuminated

Today's Extremes

State Highs State Lows

Community

WunderPhotos

Upload Photos

1,851,227 photos uploaded!

WunderBlogs® & News

Nearby

Air Quality

  Air Quality AQ Index Pollutant
Not available.

Snow Depth

Station Depth Elevation

Earthquake Activity

City Distance Mag. Time & Date
Minimum magnitude displayed is 2.5.

Coastal Water Temperatures

Place Temperature

Stations

Nearby Weather Stations

Station Location Temp. Windchill Dew Point Humidity Wind Precip. Elev Updated Type